Time;durP1;ratioP1;P1;durP2;ratioP2;P2;SDS_P1;SDS_P2;PMS_P1;PMS_P2;Temp;Humidity;BMP_temperature;BMP_pressure;BME280_temperature;BME280_humidity;BME280_pressure;Samples;Min_cycle;Max_cycle;Signal;HPM_P1;HPM_P2
2022/02/28 00:01:02;;;;;;;;;;;21.80;43.00;;;;;;5153525;27;19927;-43
2022/02/28 00:03:29;;;;;;;;;;;21.80;43.00;;;;;;5154944;27;20006;-42
2022/02/28 00:05:57;;;;;;;;;;;21.80;43.00;;;;;;5154652;27;19981;-43
2022/02/28 00:08:26;;;;;;;;;;;21.80;43.00;;;;;;5154903;27;19923;-43
2022/02/28 00:10:53;;;;;;;;;;;21.80;43.00;;;;;;5154123;27;20381;-42
2022/02/28 00:13:20;;;;;;;;;;;21.80;43.00;;;;;;5155941;27;19931;-44
2022/02/28 00:15:48;;;;;;;;;;;21.80;43.00;;;;;;5157373;27;19923;-45
2022/02/28 00:18:15;;;;;;;;;;;21.80;43.00;;;;;;5139694;27;19979;-43
2022/02/28 00:20:42;;;;;;;;;;;21.80;43.00;;;;;;5158506;27;20267;-44
2022/02/28 00:23:10;;;;;;;;;;;21.80;43.00;;;;;;5157866;27;19926;-43
2022/02/28 00:25:38;;;;;;;;;;;21.80;43.00;;;;;;5157576;27;19923;-42
2022/02/28 00:28:06;;;;;;;;;;;21.70;43.00;;;;;;5158009;27;20382;-43
2022/02/28 00:30:34;;;;;;;;;;;21.80;43.00;;;;;;5158279;27;19931;-45
2022/02/28 00:33:03;;;;;;;;;;;21.70;43.00;;;;;;5137196;27;19968;-44
2022/02/28 00:35:30;;;;;;;;;;;21.70;43.00;;;;;;5137115;27;19931;-42
2022/02/28 00:37:57;;;;;;;;;;;21.70;43.00;;;;;;5137086;27;19928;-44
2022/02/28 00:40:24;;;;;;;;;;;21.70;43.00;;;;;;5136985;27;19972;-43
2022/02/28 00:42:51;;;;;;;;;;;21.70;43.00;;;;;;5137705;27;19923;-42
2022/02/28 00:45:18;;;;;;;;;;;21.70;43.00;;;;;;5157876;27;19923;-44
2022/02/28 00:47:45;;;;;;;;;;;21.70;43.00;;;;;;5138161;27;19972;-43
2022/02/28 00:50:12;;;;;;;;;;;21.70;43.00;;;;;;5157547;27;19923;-42
2022/02/28 00:52:39;;;;;;;;;;;21.70;43.00;;;;;;5157346;27;19927;-43
2022/02/28 00:55:07;;;;;;;;;;;21.70;43.00;;;;;;5157790;27;19923;-42
2022/02/28 00:57:34;;;;;;;;;;;21.70;43.00;;;;;;5156672;27;20394;-43
2022/02/28 01:00:01;;;;;;;;;;;21.70;43.00;;;;;;5139387;27;19923;-42
2022/02/28 01:02:28;;;;;;;;;;;21.70;43.00;;;;;;5138047;27;19922;-42
2022/02/28 01:04:56;;;;;;;;;;;21.70;43.00;;;;;;5157509;27;20378;-43
2022/02/28 01:07:23;;;;;;;;;;;21.70;43.00;;;;;;5157549;27;19931;-45
2022/02/28 01:09:50;;;;;;;;;;;21.70;43.00;;;;;;5139185;27;20328;-42
2022/02/28 01:12:18;;;;;;;;;;;21.70;43.00;;;;;;5145895;27;19924;-43
2022/02/28 01:14:46;;;;;;;;;;;21.70;43.00;;;;;;5136211;27;19927;-43
2022/02/28 01:17:13;;;;;;;;;;;21.70;43.00;;;;;;5144437;27;20006;-43
2022/02/28 01:19:41;;;;;;;;;;;21.70;43.10;;;;;;5138479;27;19924;-43
2022/02/28 01:22:10;;;;;;;;;;;21.70;43.00;;;;;;5157035;27;19971;-42
2022/02/28 01:24:37;;;;;;;;;;;21.70;43.00;;;;;;5156243;27;19923;-44
2022/02/28 01:27:04;;;;;;;;;;;21.70;43.10;;;;;;5156377;27;20339;-46
2022/02/28 01:29:31;;;;;;;;;;;21.70;43.10;;;;;;5156804;27;19923;-42
2022/02/28 01:31:59;;;;;;;;;;;21.70;43.00;;;;;;5155912;27;19923;-46
2022/02/28 01:34:26;;;;;;;;;;;21.70;43.00;;;;;;5157012;27;19923;-43
2022/02/28 01:36:53;;;;;;;;;;;21.70;43.10;;;;;;5156914;27;19923;-44
2022/02/28 01:39:20;;;;;;;;;;;21.70;43.10;;;;;;5156874;27;19924;-43
2022/02/28 01:41:47;;;;;;;;;;;21.70;43.10;;;;;;5151152;27;19923;-45
2022/02/28 01:44:14;;;;;;;;;;;21.70;43.10;;;;;;5135985;27;19976;-52
2022/02/28 01:46:41;;;;;;;;;;;21.60;43.00;;;;;;5136294;27;19970;-43
2022/02/28 01:49:08;;;;;;;;;;;21.60;43.00;;;;;;5156408;27;19923;-50
2022/02/28 01:51:36;;;;;;;;;;;21.60;43.00;;;;;;5156501;27;19923;-47
2022/02/28 01:54:03;;;;;;;;;;;21.60;43.00;;;;;;5156614;27;19927;-47
2022/02/28 01:56:31;;;;;;;;;;;21.60;43.00;;;;;;5155961;27;19976;-49
2022/02/28 01:58:59;;;;;;;;;;;21.60;43.00;;;;;;5156544;27;19923;-45
2022/02/28 02:01:27;;;;;;;;;;;21.60;43.00;;;;;;5156437;27;19923;-42
2022/02/28 02:03:54;;;;;;;;;;;21.60;43.00;;;;;;5154944;27;19923;-45
2022/02/28 02:06:21;;;;;;;;;;;21.60;43.00;;;;;;5156086;27;19927;-44
2022/02/28 02:08:49;;;;;;;;;;;21.60;43.00;;;;;;5156315;27;20439;-44
2022/02/28 02:11:16;;;;;;;;;;;21.60;43.00;;;;;;5156297;27;19923;-45
2022/02/28 02:13:43;;;;;;;;;;;21.60;43.10;;;;;;5155209;27;19927;-45
2022/02/28 02:16:10;;;;;;;;;;;21.60;43.00;;;;;;5155812;27;19923;-45
2022/02/28 02:18:38;;;;;;;;;;;21.60;43.10;;;;;;5154538;27;20370;-44
2022/02/28 02:21:06;;;;;;;;;;;21.60;43.10;;;;;;5155598;27;19975;-49
2022/02/28 02:23:33;;;;;;;;;;;21.60;43.10;;;;;;5156014;27;19923;-44
2022/02/28 02:26:00;;;;;;;;;;;21.60;43.10;;;;;;5156026;27;19975;-44
2022/02/28 02:28:29;;;;;;;;;;;21.60;43.10;;;;;;5154565;27;20312;-47
2022/02/28 02:30:57;;;;;;;;;;;21.60;43.10;;;;;;5155927;27;19930;-43
2022/02/28 02:33:25;;;;;;;;;;;21.60;43.10;;;;;;5154756;27;19933;-42
2022/02/28 02:35:56;;;;;;;;;;;21.60;43.10;;;;;;5155452;27;19923;-42
2022/02/28 02:38:23;;;;;;;;;;;21.60;43.10;;;;;;5155840;27;19972;-42
2022/02/28 02:40:50;;;;;;;;;;;21.60;43.10;;;;;;5155498;27;19923;-43
2022/02/28 02:43:17;;;;;;;;;;;21.60;43.10;;;;;;5154624;27;19923;-44
2022/02/28 02:45:44;;;;;;;;;;;21.60;43.10;;;;;;5155609;27;19972;-43
2022/02/28 02:48:17;;;;;;;;;;;21.60;43.10;;;;;;5154585;27;19923;-43
2022/02/28 02:50:44;;;;;;;;;;;21.60;43.10;;;;;;5155388;27;19979;-46
2022/02/28 02:53:11;;;;;;;;;;;21.60;43.10;;;;;;5155467;27;19983;-41
2022/02/28 02:55:39;;;;;;;;;;;21.60;43.10;;;;;;5136993;27;19923;-43
2022/02/28 02:58:06;;;;;;;;;;;21.60;43.10;;;;;;5154879;27;19923;-42
2022/02/28 03:00:34;;;;;;;;;;;21.60;43.10;;;;;;5155246;27;19953;-43
2022/02/28 03:03:01;;;;;;;;;;;21.50;43.00;;;;;;5154079;27;19937;-41
2022/02/28 03:05:28;;;;;;;;;;;21.60;43.10;;;;;;5155443;27;20410;-42
2022/02/28 03:07:55;;;;;;;;;;;21.60;43.10;;;;;;5155488;27;19927;-42
2022/02/28 03:10:22;;;;;;;;;;;21.50;43.00;;;;;;5137145;27;19983;-43
2022/02/28 03:12:50;;;;;;;;;;;21.50;43.00;;;;;;5154686;27;19962;-42
2022/02/28 03:15:17;;;;;;;;;;;21.50;43.00;;;;;;5155310;27;19976;-42
2022/02/28 03:17:44;;;;;;;;;;;21.60;43.10;;;;;;5154152;27;19927;-42
2022/02/28 03:20:11;;;;;;;;;;;21.60;43.10;;;;;;5155021;27;19970;-41
2022/02/28 03:22:39;;;;;;;;;;;21.50;43.00;;;;;;5155110;27;19927;-41
2022/02/28 03:25:06;;;;;;;;;;;21.50;43.00;;;;;;5154956;27;20439;-43
2022/02/28 03:27:33;;;;;;;;;;;21.50;43.00;;;;;;5136040;27;19930;-43
2022/02/28 03:30:00;;;;;;;;;;;21.50;43.00;;;;;;5155851;27;19923;-42
2022/02/28 03:32:27;;;;;;;;;;;21.50;43.00;;;;;;5155269;27;19976;-45
2022/02/28 03:34:54;;;;;;;;;;;21.50;43.00;;;;;;5153809;27;19952;-44
2022/02/28 03:37:21;;;;;;;;;;;21.50;43.00;;;;;;5155265;27;19968;-43
2022/02/28 03:39:48;;;;;;;;;;;21.50;43.70;;;;;;5155208;27;19985;-43
2022/02/28 03:42:15;;;;;;;;;;;21.50;43.00;;;;;;5155210;27;19971;-44
2022/02/28 03:44:42;;;;;;;;;;;21.50;43.00;;;;;;5154200;27;19975;-44
2022/02/28 03:47:09;;;;;;;;;;;21.50;43.00;;;;;;5154860;27;19968;-43
2022/02/28 03:49:36;;;;;;;;;;;21.50;43.00;;;;;;5157703;27;19975;-43
2022/02/28 03:52:04;;;;;;;;;;;21.50;43.00;;;;;;5158575;27;20028;-42
2022/02/28 03:54:33;;;;;;;;;;;21.50;43.00;;;;;;5158947;27;19969;-43
2022/02/28 03:57:00;;;;;;;;;;;21.50;43.00;;;;;;5158588;27;19927;-44
2022/02/28 03:59:27;;;;;;;;;;;21.50;43.00;;;;;;5157785;27;19930;-43
2022/02/28 04:01:54;;;;;;;;;;;21.50;43.00;;;;;;5158542;27;19979;-46
2022/02/28 04:04:21;;;;;;;;;;;21.50;43.00;;;;;;5157250;27;19927;-42
2022/02/28 04:06:48;;;;;;;;;;;21.50;43.00;;;;;;5158783;27;19976;-44
2022/02/28 04:09:17;;;;;;;;;;;21.50;43.10;;;;;;5159257;27;19923;-42
2022/02/28 04:11:44;;;;;;;;;;;21.50;43.00;;;;;;5158352;27;19933;-44
2022/02/28 04:14:11;;;;;;;;;;;21.50;43.10;;;;;;5157863;27;19923;-43
2022/02/28 04:16:39;;;;;;;;;;;21.50;43.00;;;;;;5158397;27;19923;-42
2022/02/28 04:19:06;;;;;;;;;;;21.50;43.10;;;;;;5157301;27;19966;-45
2022/02/28 04:21:33;;;;;;;;;;;21.50;43.00;;;;;;5139607;27;19927;-42
2022/02/28 04:24:00;;;;;;;;;;;21.50;43.00;;;;;;5158005;27;19968;-44
2022/02/28 04:26:27;;;;;;;;;;;21.50;43.00;;;;;;5158069;27;20382;-46
2022/02/28 04:28:54;;;;;;;;;;;21.50;43.00;;;;;;5157601;27;19930;-44
2022/02/28 04:31:21;;;;;;;;;;;21.50;43.00;;;;;;5157970;27;20379;-42
2022/02/28 04:33:48;;;;;;;;;;;21.50;43.00;;;;;;5157048;27;19923;-43
2022/02/28 04:36:15;;;;;;;;;;;21.50;43.10;;;;;;5158183;27;19976;-44
2022/02/28 04:38:42;;;;;;;;;;;21.50;43.70;;;;;;5157838;27;19972;-44
2022/02/28 04:41:09;;;;;;;;;;;21.50;43.00;;;;;;5158086;27;19931;-44
2022/02/28 04:43:36;;;;;;;;;;;21.50;43.10;;;;;;5138674;27;19931;-43
2022/02/28 04:46:04;;;;;;;;;;;21.50;43.00;;;;;;5157545;27;20383;-42
2022/02/28 04:48:31;;;;;;;;;;;21.50;43.00;;;;;;5156823;27;19960;-45
2022/02/28 04:50:58;;;;;;;;;;;21.50;43.00;;;;;;5157203;27;20370;-45
2022/02/28 04:53:25;;;;;;;;;;;21.50;43.00;;;;;;5139508;27;19927;-44
2022/02/28 04:55:53;;;;;;;;;;;21.50;43.00;;;;;;5157508;27;19937;-43
2022/02/28 04:58:20;;;;;;;;;;;21.50;43.00;;;;;;5157772;27;19923;-43
2022/02/28 05:00:47;;;;;;;;;;;21.50;43.00;;;;;;5155623;27;19983;-45
2022/02/28 05:03:14;;;;;;;;;;;21.50;43.00;;;;;;5157365;27;19941;-47
2022/02/28 05:05:41;;;;;;;;;;;21.50;43.00;;;;;;5156488;27;19929;-51
2022/02/28 05:08:08;;;;;;;;;;;21.50;43.00;;;;;;5157524;27;19923;-50
2022/02/28 05:10:35;;;;;;;;;;;21.50;43.00;;;;;;5157146;27;20447;-50
2022/02/28 05:13:03;;;;;;;;;;;21.50;43.00;;;;;;5157501;27;19959;-51
2022/02/28 05:15:30;;;;;;;;;;;21.50;43.00;;;;;;5156517;27;19923;-47
2022/02/28 05:17:58;;;;;;;;;;;21.50;43.00;;;;;;5157369;27;19923;-51
2022/02/28 05:20:25;;;;;;;;;;;21.50;43.00;;;;;;5134007;27;19932;-49
2022/02/28 05:22:52;;;;;;;;;;;21.50;43.00;;;;;;5136361;27;19923;-46
2022/02/28 05:25:19;;;;;;;;;;;21.50;43.00;;;;;;5136151;27;19924;-43
2022/02/28 05:27:47;;;;;;;;;;;21.50;43.00;;;;;;5136520;27;19980;-44
2022/02/28 05:30:14;;;;;;;;;;;21.50;43.00;;;;;;5135715;27;19984;-44
2022/02/28 05:32:42;;;;;;;;;;;21.50;43.00;;;;;;5136101;27;19974;-43
2022/02/28 05:35:09;;;;;;;;;;;21.50;43.00;;;;;;5135221;27;19923;-42
2022/02/28 05:37:36;;;;;;;;;;;21.50;43.00;;;;;;5136292;27;20338;-46
2022/02/28 05:40:05;;;;;;;;;;;21.40;42.90;;;;;;5136226;27;20035;-48
2022/02/28 05:42:32;;;;;;;;;;;21.50;43.00;;;;;;5136240;27;20332;-45
2022/02/28 05:44:59;;;;;;;;;;;21.50;43.00;;;;;;5135217;27;19923;-44
2022/02/28 05:47:26;;;;;;;;;;;21.50;43.00;;;;;;5135777;27;20375;-43
2022/02/28 05:49:53;;;;;;;;;;;21.50;43.00;;;;;;5134835;27;19924;-44
2022/02/28 05:52:20;;;;;;;;;;;21.50;43.00;;;;;;5135815;27;19923;-43
2022/02/28 05:54:48;;;;;;;;;;;21.50;43.00;;;;;;5135639;27;19972;-44
2022/02/28 05:57:15;;;;;;;;;;;21.50;43.00;;;;;;5135882;27;19931;-42
2022/02/28 05:59:42;;;;;;;;;;;21.40;42.90;;;;;;5135129;27;19923;-43
2022/02/28 06:02:11;;;;;;;;;;;21.50;43.00;;;;;;5134519;27;19966;-44
2022/02/28 06:04:38;;;;;;;;;;;21.40;42.90;;;;;;5134462;27;20482;-42
2022/02/28 06:07:05;;;;;;;;;;;21.40;42.90;;;;;;5135701;27;19964;-42
2022/02/28 06:09:32;;;;;;;;;;;21.50;43.00;;;;;;5134498;27;19927;-43
2022/02/28 06:11:59;;;;;;;;;;;21.40;42.90;;;;;;5134915;27;20402;-42
2022/02/28 06:14:26;;;;;;;;;;;21.50;43.00;;;;;;5134708;27;19923;-43
2022/02/28 06:16:53;;;;;;;;;;;21.50;43.00;;;;;;5135383;27;19923;-42
2022/02/28 06:19:20;;;;;;;;;;;21.50;42.90;;;;;;5145527;27;19930;-42
2022/02/28 06:21:47;;;;;;;;;;;21.50;42.90;;;;;;5154634;27;19946;-43
2022/02/28 06:24:14;;;;;;;;;;;21.50;42.90;;;;;;5156380;27;19927;-43
2022/02/28 06:26:41;;;;;;;;;;;21.50;42.90;;;;;;5155624;27;19948;-42
2022/02/28 06:29:08;;;;;;;;;;;21.50;42.90;;;;;;5137547;27;19984;-52
2022/02/28 06:31:35;;;;;;;;;;;21.50;42.90;;;;;;5155131;27;20004;-47
2022/02/28 06:34:03;;;;;;;;;;;21.50;42.90;;;;;;5155674;27;19976;-42
2022/02/28 06:36:31;;;;;;;;;;;21.50;42.90;;;;;;5154421;27;19923;-42
2022/02/28 06:38:57;;;;;;;;;;;21.50;42.80;;;;;;5155471;27;19923;-43
2022/02/28 06:41:24;;;;;;;;;;;21.50;42.80;;;;;;5155404;27;19972;-46
2022/02/28 06:43:51;;;;;;;;;;;21.50;42.80;;;;;;5155731;27;20358;-47
2022/02/28 06:46:18;;;;;;;;;;;21.50;42.80;;;;;;5154759;27;20037;-46
2022/02/28 06:48:46;;;;;;;;;;;21.50;42.80;;;;;;5155353;27;20014;-50
2022/02/28 06:51:14;;;;;;;;;;;21.50;42.80;;;;;;5154028;27;19924;-46
2022/02/28 06:53:42;;;;;;;;;;;21.50;42.80;;;;;;5155216;27;19930;-44
2022/02/28 06:56:09;;;;;;;;;;;21.50;42.80;;;;;;5155463;27;19930;-47
2022/02/28 06:58:36;;;;;;;;;;;21.50;42.80;;;;;;5155514;27;19946;-47
2022/02/28 07:01:03;;;;;;;;;;;21.50;42.80;;;;;;5154431;27;19955;-51
2022/02/28 07:03:32;;;;;;;;;;;21.50;42.80;;;;;;5155142;27;19972;-44
2022/02/28 07:06:00;;;;;;;;;;;21.50;42.70;;;;;;5135846;27;20473;-46
2022/02/28 07:08:27;;;;;;;;;;;21.50;42.70;;;;;;5155031;27;19923;-43
2022/02/28 07:10:58;;;;;;;;;;;21.50;42.70;;;;;;5155123;27;19923;-43
2022/02/28 07:13:25;;;;;;;;;;;21.50;42.70;;;;;;5155309;27;20395;-43
2022/02/28 07:15:54;;;;;;;;;;;21.60;42.70;;;;;;5154462;27;19991;-43
2022/02/28 07:18:21;;;;;;;;;;;21.60;42.60;;;;;;5155110;27;19930;-45
2022/02/28 07:20:48;;;;;;;;;;;21.60;42.60;;;;;;5154153;27;19923;-49
2022/02/28 07:23:15;;;;;;;;;;;21.60;42.60;;;;;;5156633;27;19923;-50
2022/02/28 07:25:42;;;;;;;;;;;21.60;42.60;;;;;;5159420;27;19975;-46
2022/02/28 07:28:09;;;;;;;;;;;21.60;42.60;;;;;;5159158;27;19923;-50
2022/02/28 07:30:36;;;;;;;;;;;21.60;42.60;;;;;;5158316;27;19984;-47
2022/02/28 07:33:03;;;;;;;;;;;21.60;42.50;;;;;;5159019;27;19944;-48
2022/02/28 07:35:35;;;;;;;;;;;21.60;42.50;;;;;;5158176;27;19929;-47
2022/02/28 07:38:03;;;;;;;;;;;21.60;42.40;;;;;;5159398;27;19927;-48
2022/02/28 07:40:30;;;;;;;;;;;21.70;42.50;;;;;;5159796;27;19923;-51
2022/02/28 07:42:57;;;;;;;;;;;21.70;42.50;;;;;;5159093;27;19976;-50
2022/02/28 07:45:24;;;;;;;;;;;21.70;42.60;;;;;;5158166;27;19939;-52
2022/02/28 07:47:51;;;;;;;;;;;21.70;42.40;;;;;;5158728;27;19923;-48
2022/02/28 07:50:20;;;;;;;;;;;21.70;42.40;;;;;;5158770;27;19927;-42
2022/02/28 07:52:47;;;;;;;;;;;21.70;42.30;;;;;;5157705;27;19997;-43
2022/02/28 07:55:14;;;;;;;;;;;21.70;42.30;;;;;;5158973;27;19948;-44
2022/02/28 07:57:41;;;;;;;;;;;21.70;42.30;;;;;;5158853;27;19923;-42
2022/02/28 08:00:09;;;;;;;;;;;21.70;42.30;;;;;;5158799;27;19923;-42
2022/02/28 08:02:36;;;;;;;;;;;21.70;42.20;;;;;;5157749;27;19979;-42
2022/02/28 08:05:04;;;;;;;;;;;21.70;42.20;;;;;;5158408;27;19931;-42
2022/02/28 08:07:31;;;;;;;;;;;21.80;42.30;;;;;;5140897;27;19924;-46
2022/02/28 08:09:58;;;;;;;;;;;21.80;42.20;;;;;;5138044;27;20339;-47
2022/02/28 08:12:25;;;;;;;;;;;21.70;42.10;;;;;;5138197;27;19959;-44
2022/02/28 08:14:53;;;;;;;;;;;21.80;42.20;;;;;;5120040;27;19949;-48
2022/02/28 08:17:20;;;;;;;;;;;21.80;42.20;;;;;;5137644;27;20382;-48
2022/02/28 08:19:47;;;;;;;;;;;21.80;42.10;;;;;;5119250;27;19957;-42
2022/02/28 08:22:14;;;;;;;;;;;21.80;42.10;;;;;;5149617;27;20323;-44
2022/02/28 08:24:40;;;;;;;;;;;21.80;42.00;;;;;;5139944;27;19948;-42
2022/02/28 08:27:10;;;;;;;;;;;21.80;42.00;;;;;;5158303;27;19927;-47
2022/02/28 08:29:37;;;;;;;;;;;21.80;42.00;;;;;;5158229;27;19927;-44
2022/02/28 08:32:04;;;;;;;;;;;21.80;42.00;;;;;;5157463;27;19930;-44
2022/02/28 08:34:32;;;;;;;;;;;21.80;42.00;;;;;;5157562;27;19930;-45
2022/02/28 08:36:59;;;;;;;;;;;21.80;42.00;;;;;;5156972;27;20302;-44
2022/02/28 08:39:27;;;;;;;;;;;21.80;41.90;;;;;;5158083;27;19927;-45
2022/02/28 08:41:54;;;;;;;;;;;21.80;41.90;;;;;;5158076;27;19927;-44
2022/02/28 08:44:21;;;;;;;;;;;21.80;41.90;;;;;;5157785;27;19923;-43
2022/02/28 08:46:48;;;;;;;;;;;21.90;42.00;;;;;;5138429;27;19930;-44
2022/02/28 08:49:18;;;;;;;;;;;21.90;42.00;;;;;;5157539;27;19923;-43
2022/02/28 08:51:45;;;;;;;;;;;21.90;42.00;;;;;;5156469;27;19976;-44
2022/02/28 08:54:12;;;;;;;;;;;21.90;42.00;;;;;;5157752;27;19923;-43
2022/02/28 08:56:42;;;;;;;;;;;21.90;41.90;;;;;;5157433;27;19923;-43
2022/02/28 08:59:09;;;;;;;;;;;21.90;41.80;;;;;;5157438;27;19974;-44
2022/02/28 09:01:36;;;;;;;;;;;21.90;41.80;;;;;;5156949;27;19927;-46
2022/02/28 09:04:04;;;;;;;;;;;22.00;41.90;;;;;;5157315;27;19923;-45
2022/02/28 09:06:31;;;;;;;;;;;22.00;41.80;;;;;;5156246;27;20324;-45
2022/02/28 09:08:58;;;;;;;;;;;22.00;42.40;;;;;;5157090;27;20351;-43
2022/02/28 09:11:26;;;;;;;;;;;22.00;41.80;;;;;;5157489;27;19923;-49
2022/02/28 09:13:53;;;;;;;;;;;22.00;41.80;;;;;;5157150;27;19972;-44
2022/02/28 09:16:21;;;;;;;;;;;22.00;41.80;;;;;;5157023;27;19923;-45
2022/02/28 09:18:48;;;;;;;;;;;22.00;41.70;;;;;;5136206;27;19923;-49
2022/02/28 09:21:15;;;;;;;;;;;22.00;41.70;;;;;;5135700;27;19932;-46
2022/02/28 09:23:42;;;;;;;;;;;22.00;41.70;;;;;;5155104;27;19975;-47
2022/02/28 09:26:09;;;;;;;;;;;22.10;41.70;;;;;;5157029;27;19927;-44
2022/02/28 09:28:36;;;;;;;;;;;22.10;41.70;;;;;;5156770;27;20371;-48
2022/02/28 09:31:03;;;;;;;;;;;22.10;41.60;;;;;;5138668;27;20339;-46
2022/02/28 09:33:30;;;;;;;;;;;22.10;41.50;;;;;;5155915;27;19924;-46
2022/02/28 09:35:58;;;;;;;;;;;22.10;41.50;;;;;;5156927;27;19975;-43
2022/02/28 09:38:27;;;;;;;;;;;22.20;41.60;;;;;;5155410;27;19927;-44
2022/02/28 09:40:55;;;;;;;;;;;22.20;41.50;;;;;;5156861;27;20267;-42
2022/02/28 09:43:22;;;;;;;;;;;22.20;41.40;;;;;;5156828;27;19953;-42
2022/02/28 09:45:51;;;;;;;;;;;22.20;41.40;;;;;;5155820;27;19987;-43
2022/02/28 09:48:19;;;;;;;;;;;22.20;41.40;;;;;;5155574;27;19923;-43
2022/02/28 09:50:46;;;;;;;;;;;22.20;41.40;;;;;;5156322;27;20430;-44
2022/02/28 09:53:13;;;;;;;;;;;22.20;41.40;;;;;;5155289;27;19976;-43
2022/02/28 09:55:40;;;;;;;;;;;22.20;41.40;;;;;;5156133;27;19928;-44
2022/02/28 09:58:07;;;;;;;;;;;22.20;41.40;;;;;;5156134;27;19927;-43
2022/02/28 10:00:34;;;;;;;;;;;22.20;41.40;;;;;;5156132;27;19971;-48
2022/02/28 10:03:02;;;;;;;;;;;22.20;41.90;;;;;;5155326;27;20323;-46
2022/02/28 10:05:30;;;;;;;;;;;22.30;41.30;;;;;;5156145;27;19930;-44
2022/02/28 10:07:58;;;;;;;;;;;22.30;41.90;;;;;;5155306;27;19927;-48
2022/02/28 10:10:26;;;;;;;;;;;22.30;41.30;;;;;;5156195;27;19923;-45
2022/02/28 10:12:53;;;;;;;;;;;22.30;41.20;;;;;;5155905;27;19970;-47
2022/02/28 10:15:22;;;;;;;;;;;22.30;41.20;;;;;;5155955;27;19923;-46
2022/02/28 10:17:50;;;;;;;;;;;22.30;41.10;;;;;;5131138;27;20448;-43
2022/02/28 10:20:19;;;;;;;;;;;22.40;41.20;;;;;;5134965;27;19924;-44
2022/02/28 10:22:54;;;;;;;;;;;22.40;41.10;;;;;;5141523;27;20370;-43
2022/02/28 10:25:40;;;;;;;;;;;22.40;41.10;;;;;;5155712;27;19923;-45
2022/02/28 10:28:15;;;;;;;;;;;22.40;41.10;;;;;;5137419;27;20435;-44
2022/02/28 10:30:53;;;;;;;;;;;22.40;41.00;;;;;;5155994;27;19923;-43
2022/02/28 10:33:26;;;;;;;;;;;22.40;41.00;;;;;;5155196;27;19946;-42
2022/02/28 10:35:59;;;;;;;;;;;22.40;41.00;;;;;;5155618;27;20423;-43
2022/02/28 10:38:27;;;;;;;;;;;22.50;41.00;;;;;;5136477;27;19923;-44
2022/02/28 10:40:54;;;;;;;;;;;22.50;41.00;;;;;;5155672;27;19923;-42
2022/02/28 10:43:33;;;;;;;;;;;22.50;41.00;;;;;;5155742;27;19927;-42
2022/02/28 10:46:32;;;;;;;;;;;22.50;40.90;;;;;;5155286;27;19923;-42
2022/02/28 10:49:02;;;;;;;;;;;22.50;40.90;;;;;;5133778;27;19946;-42
2022/02/28 10:51:30;;;;;;;;;;;22.50;40.80;;;;;;5155131;27;19930;-42
2022/02/28 10:54:10;;;;;;;;;;;22.50;40.80;;;;;;5154221;27;20386;-44
2022/02/28 10:57:09;;;;;;;;;;;22.60;40.80;;;;;;5155580;27;19923;-44
2022/02/28 10:59:42;;;;;;;;;;;22.60;40.80;;;;;;5051525;28;19925;-42
2022/02/28 11:02:10;;;;;;;;;;;22.60;40.80;;;;;;5051371;28;19924;-42
2022/02/28 11:04:41;;;;;;;;;;;22.60;40.80;;;;;;5050257;28;19966;-41
2022/02/28 11:07:10;;;;;;;;;;;22.60;40.80;;;;;;5051335;28;19979;-46
2022/02/28 11:09:42;;;;;;;;;;;22.60;40.80;;;;;;5050462;28;19929;-52
2022/02/28 11:12:18;;;;;;;;;;;22.60;40.80;;;;;;5051265;28;20396;-42
2022/02/28 11:14:48;;;;;;;;;;;22.60;40.80;;;;;;5051190;28;19928;-43
2022/02/28 11:17:19;;;;;;;;;;;22.60;40.80;;;;;;5051686;28;19947;-42
2022/02/28 11:19:47;;;;;;;;;;;22.50;40.70;;;;;;5049966;28;19932;-41
2022/02/28 11:22:14;;;;;;;;;;;22.50;40.80;;;;;;5051046;28;19979;-42
2022/02/28 11:24:43;;;;;;;;;;;22.50;40.80;;;;;;5050324;28;20388;-42
2022/02/28 11:27:11;;;;;;;;;;;22.50;40.80;;;;;;5051935;28;19963;-44
2022/02/28 11:29:40;;;;;;;;;;;22.50;40.80;;;;;;5051267;28;19991;-42
2022/02/28 11:32:07;;;;;;;;;;;22.50;40.70;;;;;;5051124;28;19995;-42
2022/02/28 11:34:36;;;;;;;;;;;22.60;41.40;;;;;;5050026;28;19955;-44
2022/02/28 11:37:04;;;;;;;;;;;22.60;40.80;;;;;;5127373;28;19927;-43
2022/02/28 11:39:37;;;;;;;;;;;22.60;40.80;;;;;;5148341;27;19923;-44
2022/02/28 11:42:05;;;;;;;;;;;22.60;40.80;;;;;;5155143;27;19927;-41
2022/02/28 11:44:36;;;;;;;;;;;22.60;40.70;;;;;;5155070;27;20263;-43
2022/02/28 11:47:05;;;;;;;;;;;22.60;40.70;;;;;;5154790;27;19923;-43
2022/02/28 11:49:46;;;;;;;;;;;22.60;40.70;;;;;;5154668;27;20286;-41
2022/02/28 11:52:29;;;;;;;;;;;22.70;40.70;;;;;;5154875;27;19923;-42
2022/02/28 11:55:00;;;;;;;;;;;22.70;40.70;;;;;;5153933;27;19962;-42
2022/02/28 11:57:56;;;;;;;;;;;22.60;40.60;;;;;;5154725;27;19923;-43
2022/02/28 12:00:40;;;;;;;;;;;22.70;40.60;;;;;;5133579;27;20411;-44
2022/02/28 12:03:22;;;;;;;;;;;22.70;40.60;;;;;;5154726;27;20305;-43
2022/02/28 12:05:50;;;;;;;;;;;22.70;41.30;;;;;;5154897;27;19923;-45
2022/02/28 12:08:17;;;;;;;;;;;22.60;40.70;;;;;;5153922;27;19966;-45
2022/02/28 12:10:54;;;;;;;;;;;22.60;40.70;;;;;;5158586;27;19923;-43
2022/02/28 12:13:37;;;;;;;;;;;22.60;40.70;;;;;;5158400;27;20431;-42
2022/02/28 12:16:08;;;;;;;;;;;22.60;40.70;;;;;;5158258;27;20335;-45
2022/02/28 12:18:35;;;;;;;;;;;22.60;40.80;;;;;;5157316;27;20014;-46
2022/02/28 12:21:07;;;;;;;;;;;22.60;40.80;;;;;;5158083;27;20435;-43
2022/02/28 12:23:44;;;;;;;;;;;22.60;40.80;;;;;;5157275;27;19923;-43
2022/02/28 12:26:11;;;;;;;;;;;22.60;40.80;;;;;;5158260;27;19929;-44
2022/02/28 12:28:43;;;;;;;;;;;22.60;40.80;;;;;;5158098;27;19927;-44
2022/02/28 12:31:11;;;;;;;;;;;22.60;40.80;;;;;;5157970;27;20335;-44
2022/02/28 12:34:03;;;;;;;;;;;22.60;40.80;;;;;;5157373;27;19927;-42
2022/02/28 12:36:31;;;;;;;;;;;22.60;40.80;;;;;;5158213;27;19927;-42
2022/02/28 12:39:01;;;;;;;;;;;22.60;40.80;;;;;;5157006;27;19923;-42
2022/02/28 12:41:32;;;;;;;;;;;22.60;40.80;;;;;;5139811;27;20363;-43
2022/02/28 12:44:01;;;;;;;;;;;22.60;40.80;;;;;;5157998;27;19923;-41
2022/02/28 12:46:28;;;;;;;;;;;22.60;40.80;;;;;;5157673;27;20370;-46
2022/02/28 12:48:56;;;;;;;;;;;22.60;40.70;;;;;;5157281;27;19971;-44
2022/02/28 12:51:26;;;;;;;;;;;22.60;40.70;;;;;;5157744;27;20328;-46
2022/02/28 12:54:05;;;;;;;;;;;22.70;40.70;;;;;;5156430;27;19930;-42
2022/02/28 12:56:37;;;;;;;;;;;22.70;40.70;;;;;;5157551;27;19930;-43
2022/02/28 12:59:04;;;;;;;;;;;22.60;40.70;;;;;;5157598;27;19978;-44
2022/02/28 13:01:32;;;;;;;;;;;22.60;40.70;;;;;;5157507;27;19923;-44
2022/02/28 13:04:00;;;;;;;;;;;22.60;40.80;;;;;;5157104;27;19930;-44
2022/02/28 13:06:29;;;;;;;;;;;22.60;40.80;;;;;;5157388;27;19922;-43
2022/02/28 13:09:08;;;;;;;;;;;22.60;40.80;;;;;;5156291;27;20051;-44
2022/02/28 13:11:37;;;;;;;;;;;22.50;40.80;;;;;;5157286;27;19988;-45
2022/02/28 13:14:08;;;;;;;;;;;22.50;40.80;;;;;;5157420;27;19962;-46
2022/02/28 13:16:39;;;;;;;;;;;22.50;40.80;;;;;;5157467;27;19927;-42
2022/02/28 13:19:06;;;;;;;;;;;22.50;40.80;;;;;;5156642;27;19945;-43
2022/02/28 13:21:49;;;;;;;;;;;22.50;40.80;;;;;;5155494;27;19944;-44
2022/02/28 13:24:17;;;;;;;;;;;22.50;40.80;;;;;;5155783;27;19972;-42
2022/02/28 13:26:44;;;;;;;;;;;22.50;40.80;;;;;;5157178;27;19962;-44
2022/02/28 13:29:12;;;;;;;;;;;22.50;40.80;;;;;;5157193;27;19927;-44
2022/02/28 13:31:41;;;;;;;;;;;22.50;40.80;;;;;;5156860;27;19927;-44
2022/02/28 13:34:14;;;;;;;;;;;22.50;40.80;;;;;;5157107;27;19923;-44
2022/02/28 13:36:47;;;;;;;;;;;22.50;40.80;;;;;;5156411;27;20374;-44
2022/02/28 13:39:18;;;;;;;;;;;22.50;40.80;;;;;;5155886;27;19923;-45
2022/02/28 13:41:45;;;;;;;;;;;22.50;40.80;;;;;;5156965;27;19927;-42
2022/02/28 13:44:16;;;;;;;;;;;22.50;40.80;;;;;;5156477;27;20374;-45
2022/02/28 13:46:57;;;;;;;;;;;22.50;40.80;;;;;;5156465;27;20457;-43
2022/02/28 13:49:31;;;;;;;;;;;22.50;40.90;;;;;;5156415;27;19923;-43
2022/02/28 13:51:58;;;;;;;;;;;22.50;40.90;;;;;;5156262;27;19923;-43
2022/02/28 13:54:26;;;;;;;;;;;22.50;40.90;;;;;;5155599;27;19930;-43
2022/02/28 13:56:54;;;;;;;;;;;22.50;40.90;;;;;;5156364;27;19970;-48
2022/02/28 13:59:24;;;;;;;;;;;22.50;40.90;;;;;;5157147;27;19923;-44
2022/02/28 14:01:52;;;;;;;;;;;22.50;41.00;;;;;;5137912;27;19963;-44
2022/02/28 14:04:32;;;;;;;;;;;22.50;41.00;;;;;;5156412;27;20018;-45
2022/02/28 14:07:02;;;;;;;;;;;22.50;41.00;;;;;;5155750;27;19923;-45
2022/02/28 14:09:30;;;;;;;;;;;22.50;41.00;;;;;;5154953;27;20477;-45
2022/02/28 14:11:57;;;;;;;;;;;22.50;41.00;;;;;;5156343;27;19923;-43
2022/02/28 14:14:25;;;;;;;;;;;22.50;41.00;;;;;;5156166;27;20317;-44
2022/02/28 14:17:04;;;;;;;;;;;22.50;41.00;;;;;;5155952;27;19923;-43
2022/02/28 14:19:33;;;;;;;;;;;22.50;40.90;;;;;;5155805;27;20010;-47
2022/02/28 14:22:04;;;;;;;;;;;22.50;40.90;;;;;;5136758;27;19927;-44
2022/02/28 14:24:31;;;;;;;;;;;22.50;40.90;;;;;;5155338;27;20366;-44